Velovelo
Português Nederlands 日本語 中文
Español English čeština slovenčina
русский italiano polski norsk
français Deutsch svenska عربي
 
 vorige Seite
 einem Freund senden
 Um zu drucken
 ---> La Vençoise 2015 : résultats du 105 km

Cl ....Dos...Nom PrénomCl.c …....Temps…....Moy…..
1 9 GIOVINE dario 1 -30M 03:11:44 32,86
2 441 FERRERO Roman 2 -30M 03:16:50 32,01
3 408 BLANC Francois xavier 1 -50M 03:16:51 32,00
4 396 LACRAMPE Gilles 2 -50M 03:16:56 31,99
5 6 GIANFREDA Franck 3 -50M 03:16:56 31,99
6 324 CARVALHO Marcelo 3 -30M 03:16:56 31,99
7 285 CHRISTOPHER Leung 1 -40M 03:16:56 31,99
8 249 VALENTI jean-philippe 4 -50M 03:16:56 31,99
9 113 BLEUSE Bruno 1 -60M 03:19:22 31,60
10 272 MICHEL Pascal 2 -60M 03:20:37 31,41
11 365 CHAPART Jérôme 5 -50M 03:20:38 31,40
12 289 RABUSSIER Olivier 6 -50M 03:23:41 30,93
13 307 CAMERA julien 2 -40M 03:24:09 30,86
14 443 OLIVA Marco 7 -50M 03:24:20 30,83
15 452 GHENNAN Lionel 8 -50M 03:24:22 30,83
16 1 BROCHARD Laurent 9 -50M 03:24:23 30,83
17 165 LANGASQ Didier 10 -50M 03:25:15 30,69
18 414 GONZALES Laurent 3 -40M 03:25:36 30,64
19 445 GERARD Olivier 11 -50M 03:25:36 30,64
20 388 ROUX Janick 12 -50M 03:29:18 30,10
21 111 DALMASSO Michael 4 -40M 03:29:19 30,10
22 257 BAROUKH damien 4 -30M 03:29:20 30,10
23 230 HERER Marek 5 -30M 03:29:22 30,09
24 143 KIEFFER NICOLAS 5 -40M 03:29:22 30,09
25 132 PAUDOIE Yoann 6 -40M 03:29:22 30,09
26 299 MUSSEAU stephane 7 -40M 03:29:34 30,06
27 167 BEAUMOND Philippe 3 -60M 03:30:15 29,96
28 377 MASSYN YANN 6 -30M 03:30:15 29,96
29 453 QUATRICEU DAVID 8 -40M 03:30:15 29,96
30 209 DE SAINT JEAN Magdalena 1 +40F 03:30:16 29,96
31 73 BOUQUILLON Franck 13 -50M 03:30:16 29,96
32 372 AUGUGLIARO Nicolas 9 -40M 03:30:45 29,89
33 43 APARICIO gregory 10 -40M 03:30:45 29,89
34 417 GARCIA franck 14 -50M 03:30:47 29,89
35 348 PAUSELLI Thierry 15 -50M 03:30:47 29,89
36 45 APARICIO REMI 7 -30M 03:30:56 29,87
37 355 SOLER François 8 -30M 03:31:54 29,73
38 422 LEFAURE Michael 16 -50M 03:32:14 29,68
39 80 BARBIERA Stephan 17 -50M 03:35:25 29,25
40 352 RAFFIN Didier 1 +60M 03:35:26 29,24
41 386 PAQUIER Guillaume 18 -50M 03:35:33 29,23
42 116 RUE Jean-Marc 19 -50M 03:36:48 29,06
43 312 BOYER sebastien 20 -50M 03:40:12 28,61
44 316 ARTUSIO Vincent 4 -60M 03:40:18 28,60
45 258 CAMPANA YANNICK 21 -50M 03:40:19 28,60
46 25 SOETENS denis 22 -50M 03:40:22 28,59
47 335 BLACHE LAURENT 11 -40M 03:41:22 28,46
48 449 LELON Jean Pierre 23 -50M 03:41:23 28,46
49 195 DELÉTANG Jean-Marie 24 -50M 03:41:25 28,45
50 323 CERUTTI riccardo 25 -50M 03:41:26 28,45
51 322 BRESCIANO Simone 26 -50M 03:41:29 28,44
52 430 GIANCUCA Panizzi 27 -50M 03:41:32 28,44
53 8 AUGIER Stéphane 28 -50M 03:41:33 28,44
54 328 DEVIVI LAURENT 29 -50M 03:41:48 28,40
55 363 DESROCHES Thomas 12 -40M 03:42:00 28,38
56 233 BARDOS Yves 5 -60M 03:43:01 28,25
57 317 PICOULET Anthony 13 -40M 03:43:01 28,25
58 353 GUFROY Jean-Philippe 6 -60M 03:43:02 28,25
59 72 BERNARD Julien 14 -40M 03:43:05 28,24
60 112 GAUTHERIN Ludovic 15 -40M 03:43:13 28,22
61 402 MOSSOTO Laurent 16 -40M 03:43:15 28,22
62 70 MILLE Mikael 17 -40M 03:44:02 28,12
63 152 GAVOIS richard 30 -50M 03:45:19 27,96
64 94 HERCKEL Dominique 2 +60M 03:45:28 27,94
65 409 BERNARD FRANDO Noel 3 +60M 03:45:29 27,94
66 406 BAIMA JEROME 31 -50M 03:45:30 27,94
67 96 GAGNAIRE Olivier 18 -40M 03:45:47 27,90
68 144 ANDREOTTI patrick 32 -50M 03:46:03 27,87
69 77 ABOU Philippe 19 -40M 03:46:04 27,87
70 2 AGNOLUTTO Christophe 33 -50M 03:46:05 27,87
71 163 VERGANO michael 34 -50M 03:46:25 27,82
72 251 SURAY patrick 4 +60M 03:46:26 27,82
73 243 AVINAIN Nicolas 20 -40M 03:46:38 27,80
74 226 CARMAGNOLLE Jérémy 9 -30M 03:46:39 27,80
75 27 VAN DER DOORN Wim 35 -50M 03:46:52 27,77
76 297 LEPLOMB ERIC 36 -50M 03:47:33 27,69
77 442 COME Olivier 37 -50M 03:50:08 27,38
78 188 VANOOSTEN romain 10 -30M 03:52:17 27,12
79 384 SORENSEN Earl 38 -50M 03:52:54 27,05
80 439 ROUSIER Christophe 39 -50M 03:52:55 27,05
81 366 COQUARD Jérôme 21 -40M 03:52:56 27,05
82 383 BERTRAND Florent 40 -50M 03:52:57 27,05
83 393 LAGORIO Eric 7 -60M 03:52:59 27,04
84 412 MILLO Guillaume 5 +60M 03:54:35 26,86
85 281 THIERRY Christophe 41 -50M 03:56:18 26,66
86 101 HAMLIN Gilles 42 -50M 03:56:46 26,61
87 110 TISSIDRE Nicolas 22 -40M 03:57:03 26,58
88 432 DALDI Fabrizio 43 -50M 03:57:11 26,56
89 57 FERRER Francois 44 -50M 03:57:59 26,47
90 436 CRISTINI Cyril 23 -40M 03:57:59 26,47
91 429 ALLARIA Silvia 1 -40F 03:58:06 26,46
92 419 MESSNER Patrick 8 -60M 03:58:45 26,39
93 120 HUE Olivier 45 -50M 03:59:37 26,29
94 216 GANGLOFF Serge 9 -60M 03:59:45 26,28
95 450 LAFRANCHISE Didier 6 +60M 03:59:48 26,27
96 413 MILLO Eric 46 -50M 04:01:09 26,12
97 105 CRENE Laurent 47 -50M 04:01:10 26,12
98 286 LIEVRE Philippe 10 -60M 04:01:22 26,10
99 448 GALLERI Edmond 48 -50M 04:01:25 26,10
100 371 ELISCI Pascal 49 -50M 04:01:55 26,04
101 331 LOPEZ michael 24 -40M 04:03:46 25,85
102 194 PICCO Jorick 25 -40M 04:03:47 25,84
103 451 PIGEAT Anthony 11 -30M 04:04:32 25,76
104 150 BAFFERT Gilles 26 -40M 04:04:39 25,75
105 198 MENEI Olivier 27 -40M 04:04:39 25,75
106 213 VOUILLON Jean-Philippe 50 -50M 04:04:40 25,75
107 148 DI GIOVANNI Michel 7 +60M 04:05:31 25,66
108 69 FRISON Sébastian 51 -50M 04:05:33 25,66
109 225 GARCIA Jean-François 8 +60M 04:05:40 25,65
110 387 LACOTE Steve 12 -30M 04:05:44 25,64
111 16 GRISANZIO Henri 9 +60M 04:06:49 25,53
112 87 VACHEZ fabrice 52 -50M 04:07:02 25,50
113 304 FILLEUL valentine 2 -40F 04:07:02 25,50
114 44 LENOIR Willy 53 -50M 04:07:04 25,50
115 306 GELONI Christophe 28 -40M 04:07:14 25,48
116 313 DE MAIO remy 54 -50M 04:07:15 25,48
117 207 ELLEON LAURENT 55 -50M 04:07:16 25,48
118 158 COMIZA Daniel 29 -40M 04:07:30 25,45
119 292 LUCAS CYRILLE 30 -40M 04:08:16 25,38
120 219 MARTIN sylvain 31 -40M 04:08:17 25,37
121 162 CESARONI cyrill 56 -50M 04:08:21 25,37
122 334 TODESCHINI frederic 57 -50M 04:09:35 25,24
123 58 FERRER Frederic 11 -60M 04:09:58 25,20
124 61 BOYER JEREMY 13 -30M 04:10:00 25,20
125 52 CLAUDEL jean-michel 58 -50M 04:12:25 24,96
126 255 COSIJN Gerardjan 12 -60M 04:12:29 24,95
127 278 PESTUGGIA patrick 13 -60M 04:12:30 24,95
128 457 DAMBRUNE Gaetan 14 -30M 04:13:10 24,88
129 256 COMODINI laurent 32 -40M 04:13:11 24,88
130 454 CARAMAGNOL Gregoire 59 -50M 04:13:14 24,88
131 151 GARPOPOLO SYLVAIN 60 -50M 04:13:50 24,82
132 155 LANOIS laurent 61 -50M 04:14:27 24,76
133 179 FERESIN Frédéric 62 -50M 04:14:50 24,72
134 314 LESGOURGUES Michel 14 -60M 04:15:43 24,64
135 76 GUSTINELLI gilles 63 -50M 04:16:06 24,60
136 440 GUIOCHET Gilles 64 -50M 04:16:07 24,60
137 339 FAUQUET Thomas 33 -40M 04:16:16 24,58
138 437 LUCIO Jean 15 -60M 04:16:48 24,53
139 277 PERIGAUD Frank 16 -60M 04:17:46 24,44
140 133 SPAGNOL Robert 10 +60M 04:18:17 24,39
141 276 MILLE guillaume 34 -40M 04:18:50 24,34
142 205 REMY Colette 2 +40F 04:19:02 24,32
143 250 BECKER BRUNO 17 -60M 04:19:34 24,27
144 114 PIZZOL Manu 35 -40M 04:21:46 24,07
145 254 COSIJN Adela 3 +40F 04:21:56 24,05
146 455 MALENGE Eric 18 -60M 04:22:23 24,01
147 425 FABRIZIO Robotti 65 -50M 04:22:51 23,97
148 159 BARBERIS Cécile 3 -40F 04:23:28 23,91
149 403 BARBEAU Mathias 36 -40M 04:24:52 23,79
150 407 BOUTIN sylvain 66 -50M 04:25:00 23,77
151 341 ADAMOVIC Dejan 67 -50M 04:26:17 23,66
152 100 ZANDOTTI philippe 68 -50M 04:26:21 23,65
153 38 MARTINET pascal 69 -50M 04:27:15 23,57
154 59 GIBELLI Christophe 37 -40M 04:28:51 23,43
155 147 BOCQUET Jean-Luc 11 +60M 04:29:23 23,39
156 212 GRONDIN Alain 70 -50M 04:31:02 23,25
157 315 ARTUSIO Isabelle 4 +40F 04:31:07 23,24
158 288 GABRIELLI Robert 19 -60M 04:31:08 23,24
159 160 LEPETITCOLLIN ERIC 20 -60M 04:31:30 23,20
160 199 ELBAZE Bruno 1 -M 04:31:44 23,19
161 211 PARENT RENAUD 71 -50M 04:31:44 23,18
162 364 STACUL Stéphanie 4 -40F 04:31:46 23,18
163 92 BUTRUILLE Laurent 72 -50M 04:32:02 23,16
164 356 CUVELLIER Pascal 73 -50M 04:32:57 23,08
165 244 FERRERO Frederic 21 -60M 04:33:03 23,07
166 21 BICCHIERAI olivier 74 -50M 04:33:37 23,03
167 260 RODRIGUEZ Eric 22 -60M 04:33:38 23,02
168 186 ANDREATTA MICHEL 23 -60M 04:33:48 23,01
169 7 CERRUTTI Jean-Luc 24 -60M 04:34:54 22,92
170 228 CHASSAGNARD PHILIPPE 25 -60M 04:34:57 22,91
171 332 ATTIA Ezzeddine 75 -50M 04:35:09 22,90
172 268 DELEGLISE georges 2 -M 04:36:12 22,81
173 192 BIANCHERI NATHALIE 5 +40F 04:36:39 22,77
174 370 TAMAGNO Denis 26 -60M 04:36:39 22,77
175 269 RIZZETTO Alain 76 -50M 04:36:42 22,77
176 274 GAIXET Jean-Pierre 12 +60M 04:38:17 22,64
177 201 NARESI Pierre 77 -50M 04:38:21 22,63
178 88 DUPUIS Thierry 27 -60M 04:38:41 22,61
179 261 PIANA PASCAL 78 -50M 04:39:16 22,56
180 248 PLAVCAN Juraj 38 -40M 04:39:38 22,53
181 373 DELAYE Olivier 39 -40M 04:40:52 22,43
182 320 GALEA MICHEL 40 -40M 04:41:05 22,41
183 428 BRUZZONE Marco 79 -50M 04:41:57 22,35
184 360 HEMON Julien 41 -40M 04:42:13 22,32
185 28 LAMY vincent 80 -50M 04:43:14 22,24
186 217 THIENARD Jean-Claude 13 +60M 04:43:30 22,22
187 362 SAY Alain 14 +60M 04:43:33 22,22
188 234 VAISSIERE Thierry 81 -50M 04:43:39 22,21
189 157 LEMAITRE Vincent 42 -40M 04:44:08 22,17
190 433 DI QUINACO Paolo 82 -50M 04:45:05 22,10
191 426 JANY stepane 83 -50M 04:46:11 22,01
192 218 DAURES Christiane 6 +40F 04:47:15 21,93
193 238 BAYET Christian 15 +60M 04:48:43 21,82
194 68 VERGEZ anne 7 +40F 04:49:15 21,78
195 344 POUGIN jean francois 84 -50M 04:50:18 21,70
196 239 COUTY Philippe 85 -50M 04:51:59 21,58
197 235 BATT Michel 16 +60M 04:52:30 21,54
198 139 GIGAULT Patrick 86 -50M 04:52:37 21,53
199 138 BRACCIALI Maurice 17 +60M 04:52:38 21,53
200 51 BENEL Jérémie 43 -40M 04:53:12 21,49
201 135 DAVID ALEXANDRE 87 -50M 04:53:28 21,47
202 93 COLLIN christian 28 -60M 04:55:02 21,35
203 49 TRAMONI ARROM Christian 88 -50M 04:55:04 21,35
204 67 PERNOT nathalie 8 +40F 04:56:27 21,25
205 222 LEURS laurent 89 -50M 04:57:41 21,16
206 221 DELEVACQUE david 90 -50M 04:57:42 21,16
207 327 SUAREZ pascal 91 -50M 04:57:50 21,15
208 361 TOSTIVINT Emile 18 +60M 04:58:27 21,11
209 107 CARLES Marc 29 -60M 04:58:28 21,11
210 145 EXPERT Régis 30 -60M 04:59:48 21,01
211 41 ANGIONI martin 92 -50M 05:00:23 20,97
212 161 MATHIEU THIERRY 93 -50M 05:00:27 20,97
213 122 AIGRET Jérôme 44 -40M 05:00:58 20,93
214 141  ?Dossard #141 3 -M 05:01:21 20,91
215 376 FRADIN Philippe 94 -50M 05:02:09 20,85
216 242 CLAUSSE JEAN-MICHEL 31 -60M 05:02:52 20,80
217 119 GRANIER Didier 19 +60M 05:03:09 20,78
218 267 SAGET Pascal 32 -60M 05:03:47 20,74
219 197 PIOVANO Noële 9 +40F 05:04:00 20,72
220 146 REYNAUD Jean-Claude 20 +60M 05:04:26 20,70
221 177 CHIPON Philippe 33 -60M 05:05:04 20,65
222 174 DEBONNET Mathieu 95 -50M 05:05:43 20,61
223 380 BUFFALINI Régis 96 -50M 05:08:17 20,44
224 176 GUIDOBALDI Céline 10 +40F 05:09:23 20,36
225 153 BERTOLETTI Fausto 97 -50M 05:09:37 20,35
226 395 NIGON Christophe 98 -50M 05:09:48 20,34
227 173 IBGHI William 34 -60M 05:11:19 20,24
228 71 PETIT Yannick 99 -50M 05:11:38 20,22
229 185 RADET Frédéric 35 -60M 05:11:52 20,20
230 325 STRACK Nathalie 1 -F 05:11:52 20,20
231 131 DELAGE Jean-Pierre 21 +60M 05:12:00 20,19
232 351 ARGENTA Patrick 22 +60M 05:15:01 20,00
233 391 ROATTINO René 23 +60M 05:15:02 20,00
234 130 BENSAHEL Jean-Jacques 36 -60M 05:15:52 19,95
235 98 VAISSIERE Laurent 100 -50M 05:15:52 19,95
236 62 MEREGHETTI Massimo 101 -50M 05:17:11 19,86
237 39 BECHLITCH Stanislas 102 -50M 05:17:11 19,86
238 56 PETRALI Roberto 37 -60M 05:17:11 19,86
239 326 FONTAINE patricia 11 +40F 05:17:50 19,82
240 394 BLASQUEZ Jean Vincent 24 +60M 05:22:08 19,56
241 109 MARTIN Régis 25 +60M 05:22:17 19,55
242 438 MACCOLINI Marco 103 -50M 05:23:28 19,48
243 435 CORBELLI Anna Maria 12 +40F 05:23:35 19,47
244 168 BOURG Jean-Jacques 26 +60M 05:24:31 19,41
245 287 LECLERC dany 27 +60M 05:26:24 19,30
246 280 WALSCHOTS Cath 13 +40F 05:27:08 19,26
247 164 AUFFRET Michaël 104 -50M 05:28:06 19,20
248 421 GUILY Toussaint 105 -50M 05:28:07 19,20
249 309 CHAPON Aurelie 5 -40F 05:28:54 19,15
250 103 TOURETTE Christophe 106 -50M 05:35:47 18,76
251 121 AIGRET Janick 28 +60M 05:38:51 18,59
252 349 CHABERT Hervé 45 -40M 05:40:11 18,52
253 124 CLAUZEL Frédéric 15 -30M 05:41:14 18,46
254 311 BLANC Julien 46 -40M 06:07:48 17,13
255 279 BOZZA Sandrine 6 -40F 06:08:36 17,09
256 253 ROLANT Philippe 107 -50M 06:08:37 17,09
257 35 MELORIO Teresa 14 +40F 06:38:37 15,81
258 420 SGARAVIZZI Marcel 29 +60M 06:38:38 15,80
259 36 BORGES Beatriz 15 +40F 07:33:19 13,90
260 399 NOULIN Johan 47 -40M 08:08:17 12,90
261 398 CAILLEREZ Frédéric 108 -50M 08:08:20 12,90

Haut 









Haut  
 Redaktion   Copyright Lesen: Hier klicken Um zu lesen !